Terminal Aerodrome Forecast
Issued by NWS

Home | Current Version | Previous Version | Text Only | Print | Product List | Glossary On
Versions: 1 2 3 4 5 6 7 8 9 10 11 12 13 14 15 16
000
FTUS43 KGRR 030500
TAFJXN
TAF
KJXN 030540Z 0306/0406 20007KT P6SM OVC150
     FM031500 15012KT 2SM -SN BR OVC018
     FM031700 16014G21KT 1SM -FZRASN BR OVC009=

USA.gov is the U.S. government's official web portal to all federal, state and local government web resources and services.